Terminal Aerodrome Forecast
Issued by NWS

Current Version | Previous Version | Text Only | Print | Product List | Glossary On
Versions: 1 2 3 4 5 6 7 8 9 10 11 12 13 14 15 16 17 18 19 20 21 22 23 24 25
000
FTUS46 KOTX 171137
TAFCOE
TAF
KCOE 171137Z 1712/1812 16008KT P6SM SCT200
     FM171400 19009KT P6SM SCT200 WS020/24030KT
     FM171800 20015G28KT P6SM SCT150
     FM172100 23027G38KT 6SM HZ BKN150
     FM180300 23011KT P6SM SCT150
     FM180600 18005KT P6SM BKN250=

USA.gov is the U.S. government's official web portal to all federal, state and local government web resources and services.